sensor_id;sensor_type;location;lat;lon;timestamp;temperature;humidity
76102;SHT30;64830;46.910;6.354;2023-09-19T00:01:20;15.81;78.68
76102;SHT30;64830;46.910;6.354;2023-09-19T00:03:45;15.83;78.93
76102;SHT30;64830;46.910;6.354;2023-09-19T00:06:11;15.83;78.25
76102;SHT30;64830;46.910;6.354;2023-09-19T00:08:41;15.81;78.39
76102;SHT30;64830;46.910;6.354;2023-09-19T00:11:09;15.83;78.57
76102;SHT30;64830;46.910;6.354;2023-09-19T00:13:36;15.84;78.91
76102;SHT30;64830;46.910;6.354;2023-09-19T00:16:08;15.89;79.09
76102;SHT30;64830;46.910;6.354;2023-09-19T00:18:33;15.86;78.64
76102;SHT30;64830;46.910;6.354;2023-09-19T00:21:00;15.83;78.50
76102;SHT30;64830;46.910;6.354;2023-09-19T00:23:26;15.80;78.76
76102;SHT30;64830;46.910;6.354;2023-09-19T00:25:52;15.79;78.92
76102;SHT30;64830;46.910;6.354;2023-09-19T00:28:18;15.83;79.09
76102;SHT30;64830;46.910;6.354;2023-09-19T00:30:45;15.79;78.88
76102;SHT30;64830;46.910;6.354;2023-09-19T00:33:15;15.80;79.07
76102;SHT30;64830;46.910;6.354;2023-09-19T00:35:54;15.77;79.02
76102;SHT30;64830;46.910;6.354;2023-09-19T00:38:21;15.77;79.13
76102;SHT30;64830;46.910;6.354;2023-09-19T00:40:50;15.80;79.49
76102;SHT30;64830;46.910;6.354;2023-09-19T00:43:20;15.83;78.86
76102;SHT30;64830;46.910;6.354;2023-09-19T00:45:48;15.76;79.04
76102;SHT30;64830;46.910;6.354;2023-09-19T00:48:15;15.74;79.38
76102;SHT30;64830;46.910;6.354;2023-09-19T00:50:43;15.74;79.50
76102;SHT30;64830;46.910;6.354;2023-09-19T00:53:09;15.76;79.47
76102;SHT30;64830;46.910;6.354;2023-09-19T00:55:39;15.77;79.43
76102;SHT30;64830;46.910;6.354;2023-09-19T00:58:06;15.80;79.61
76102;SHT30;64830;46.910;6.354;2023-09-19T01:00:33;15.81;79.58
76102;SHT30;64830;46.910;6.354;2023-09-19T01:02:59;15.80;79.99
76102;SHT30;64830;46.910;6.354;2023-09-19T01:05:27;15.79;79.27
76102;SHT30;64830;46.910;6.354;2023-09-19T01:07:53;15.80;79.87
76102;SHT30;64830;46.910;6.354;2023-09-19T01:10:19;15.77;79.70
76102;SHT30;64830;46.910;6.354;2023-09-19T01:18:30;15.79;80.06
76102;SHT30;64830;46.910;6.354;2023-09-19T01:21:04;15.80;80.18
76102;SHT30;64830;46.910;6.354;2023-09-19T01:32:03;15.74;79.89
76102;SHT30;64830;46.910;6.354;2023-09-19T01:34:52;15.69;80.12
76102;SHT30;64830;46.910;6.354;2023-09-19T01:37:19;15.66;80.38
76102;SHT30;64830;46.910;6.354;2023-09-19T01:39:50;15.62;80.34
76102;SHT30;64830;46.910;6.354;2023-09-19T01:45:10;15.60;80.50
76102;SHT30;64830;46.910;6.354;2023-09-19T01:47:42;15.55;80.89
76102;SHT30;64830;46.910;6.354;2023-09-19T01:50:32;15.50;80.83
76102;SHT30;64830;46.910;6.354;2023-09-19T01:53:05;15.50;81.16
76102;SHT30;64830;46.910;6.354;2023-09-19T01:55:37;15.50;81.37
76102;SHT30;64830;46.910;6.354;2023-09-19T01:58:34;15.43;81.48
76102;SHT30;64830;46.910;6.354;2023-09-19T02:01:01;15.46;81.89
76102;SHT30;64830;46.910;6.354;2023-09-19T02:03:27;15.46;81.67
76102;SHT30;64830;46.910;6.354;2023-09-19T02:05:54;15.45;81.88
76102;SHT30;64830;46.910;6.354;2023-09-19T02:08:21;15.49;81.97
76102;SHT30;64830;46.910;6.354;2023-09-19T02:10:48;15.50;81.83
76102;SHT30;64830;46.910;6.354;2023-09-19T02:13:18;15.47;81.94
76102;SHT30;64830;46.910;6.354;2023-09-19T02:15:44;15.43;81.93
76102;SHT30;64830;46.910;6.354;2023-09-19T02:18:10;15.40;82.13
76102;SHT30;64830;46.910;6.354;2023-09-19T02:20:40;15.43;82.21
76102;SHT30;64830;46.910;6.354;2023-09-19T02:23:06;15.42;82.44
76102;SHT30;64830;46.910;6.354;2023-09-19T02:25:33;15.43;82.18
76102;SHT30;64830;46.910;6.354;2023-09-19T02:27:58;15.42;82.08
76102;SHT30;64830;46.910;6.354;2023-09-19T02:30:25;15.38;82.45
76102;SHT30;64830;46.910;6.354;2023-09-19T02:32:51;15.32;82.39
76102;SHT30;64830;46.910;6.354;2023-09-19T02:35:17;15.34;82.55
76102;SHT30;64830;46.910;6.354;2023-09-19T02:37:45;15.32;82.82
76102;SHT30;64830;46.910;6.354;2023-09-19T02:40:11;15.29;82.82
76102;SHT30;64830;46.910;6.354;2023-09-19T02:42:53;15.25;82.78
76102;SHT30;64830;46.910;6.354;2023-09-19T02:45:19;15.25;82.93
76102;SHT30;64830;46.910;6.354;2023-09-19T02:47:46;15.28;83.02
76102;SHT30;64830;46.910;6.354;2023-09-19T02:50:12;15.24;83.01
76102;SHT30;64830;46.910;6.354;2023-09-19T02:52:45;15.25;83.16
76102;SHT30;64830;46.910;6.354;2023-09-19T02:55:18;15.29;82.99
76102;SHT30;64830;46.910;6.354;2023-09-19T03:00:12;15.28;83.05
76102;SHT30;64830;46.910;6.354;2023-09-19T03:02:38;15.27;83.15
76102;SHT30;64830;46.910;6.354;2023-09-19T03:05:06;15.31;83.19
76102;SHT30;64830;46.910;6.354;2023-09-19T03:07:32;15.32;83.22
76102;SHT30;64830;46.910;6.354;2023-09-19T03:09:58;15.34;83.05
76102;SHT30;64830;46.910;6.354;2023-09-19T03:12:23;15.35;83.07
76102;SHT30;64830;46.910;6.354;2023-09-19T03:14:49;15.35;82.98
76102;SHT30;64830;46.910;6.354;2023-09-19T03:17:15;15.39;83.06
76102;SHT30;64830;46.910;6.354;2023-09-19T03:19:41;15.40;83.08
76102;SHT30;64830;46.910;6.354;2023-09-19T03:22:06;15.39;82.90
76102;SHT30;64830;46.910;6.354;2023-09-19T03:24:33;15.43;82.81
76102;SHT30;64830;46.910;6.354;2023-09-19T03:26:59;15.42;82.98
76102;SHT30;64830;46.910;6.354;2023-09-19T03:29:24;15.40;82.88
76102;SHT30;64830;46.910;6.354;2023-09-19T03:31:50;15.39;83.14
76102;SHT30;64830;46.910;6.354;2023-09-19T03:34:16;15.40;82.99
76102;SHT30;64830;46.910;6.354;2023-09-19T03:36:42;15.39;83.18
76102;SHT30;64830;46.910;6.354;2023-09-19T03:39:07;15.40;83.03
76102;SHT30;64830;46.910;6.354;2023-09-19T03:41:33;15.38;83.17
76102;SHT30;64830;46.910;6.354;2023-09-19T03:44:01;15.39;83.38
76102;SHT30;64830;46.910;6.354;2023-09-19T03:46:27;15.38;83.24
76102;SHT30;64830;46.910;6.354;2023-09-19T03:48:53;15.36;83.23
76102;SHT30;64830;46.910;6.354;2023-09-19T03:51:20;15.35;83.23
76102;SHT30;64830;46.910;6.354;2023-09-19T03:53:45;15.34;83.17
76102;SHT30;64830;46.910;6.354;2023-09-19T03:56:10;15.31;83.42
76102;SHT30;64830;46.910;6.354;2023-09-19T03:58:36;15.28;83.38
76102;SHT30;64830;46.910;6.354;2023-09-19T04:01:05;15.29;83.73
76102;SHT30;64830;46.910;6.354;2023-09-19T04:03:34;15.34;83.60
76102;SHT30;64830;46.910;6.354;2023-09-19T04:06:11;15.35;83.35
76102;SHT30;64830;46.910;6.354;2023-09-19T04:08:37;15.34;83.39
76102;SHT30;64830;46.910;6.354;2023-09-19T04:11:02;15.29;83.47
76102;SHT30;64830;46.910;6.354;2023-09-19T04:13:28;15.31;83.51
76102;SHT30;64830;46.910;6.354;2023-09-19T04:15:53;15.32;83.28
76102;SHT30;64830;46.910;6.354;2023-09-19T04:18:19;15.32;83.42
76102;SHT30;64830;46.910;6.354;2023-09-19T04:20:55;15.32;83.35
76102;SHT30;64830;46.910;6.354;2023-09-19T04:23:21;15.29;83.30
76102;SHT30;64830;46.910;6.354;2023-09-19T04:25:47;15.27;83.36
76102;SHT30;64830;46.910;6.354;2023-09-19T04:28:13;15.27;83.52
76102;SHT30;64830;46.910;6.354;2023-09-19T04:30:38;15.24;83.33
76102;SHT30;64830;46.910;6.354;2023-09-19T04:33:07;15.19;83.34
76102;SHT30;64830;46.910;6.354;2023-09-19T04:35:33;15.18;83.60
76102;SHT30;64830;46.910;6.354;2023-09-19T04:37:59;15.18;83.84
76102;SHT30;64830;46.910;6.354;2023-09-19T04:40:25;15.19;83.70
76102;SHT30;64830;46.910;6.354;2023-09-19T04:42:57;15.22;83.71
76102;SHT30;64830;46.910;6.354;2023-09-19T04:45:23;15.15;83.86
76102;SHT30;64830;46.910;6.354;2023-09-19T04:47:49;15.12;84.13
76102;SHT30;64830;46.910;6.354;2023-09-19T04:50:14;15.08;84.29
76102;SHT30;64830;46.910;6.354;2023-09-19T04:52:43;15.05;84.41
76102;SHT30;64830;46.910;6.354;2023-09-19T04:55:13;15.02;84.45
76102;SHT30;64830;46.910;6.354;2023-09-19T04:57:45;15.02;84.53
76102;SHT30;64830;46.910;6.354;2023-09-19T05:00:16;15.04;84.70
76102;SHT30;64830;46.910;6.354;2023-09-19T05:02:42;15.02;84.63
76102;SHT30;64830;46.910;6.354;2023-09-19T05:05:09;15.05;84.80
76102;SHT30;64830;46.910;6.354;2023-09-19T05:07:36;15.11;84.67
76102;SHT30;64830;46.910;6.354;2023-09-19T05:10:02;15.14;84.48
76102;SHT30;64830;46.910;6.354;2023-09-19T05:12:33;15.15;84.39
76102;SHT30;64830;46.910;6.354;2023-09-19T05:14:59;15.18;84.33
76102;SHT30;64830;46.910;6.354;2023-09-19T05:17:26;15.15;84.41
76102;SHT30;64830;46.910;6.354;2023-09-19T05:19:52;15.18;84.32
76102;SHT30;64830;46.910;6.354;2023-09-19T05:22:18;15.18;84.20
76102;SHT30;64830;46.910;6.354;2023-09-19T05:24:44;15.19;84.29
76102;SHT30;64830;46.910;6.354;2023-09-19T05:27:12;15.18;84.29
76102;SHT30;64830;46.910;6.354;2023-09-19T05:29:37;15.24;84.34
76102;SHT30;64830;46.910;6.354;2023-09-19T05:32:03;15.24;84.40
76102;SHT30;64830;46.910;6.354;2023-09-19T05:34:29;15.25;84.23
76102;SHT30;64830;46.910;6.354;2023-09-19T05:36:55;15.27;84.18
76102;SHT30;64830;46.910;6.354;2023-09-19T05:39:21;15.25;84.20
76102;SHT30;64830;46.910;6.354;2023-09-19T05:41:48;15.25;84.14
76102;SHT30;64830;46.910;6.354;2023-09-19T05:44:13;15.25;84.07
76102;SHT30;64830;46.910;6.354;2023-09-19T05:46:39;15.27;84.30
76102;SHT30;64830;46.910;6.354;2023-09-19T05:49:05;15.24;84.18
76102;SHT30;64830;46.910;6.354;2023-09-19T05:51:30;15.21;84.13
76102;SHT30;64830;46.910;6.354;2023-09-19T05:53:56;15.19;84.25
76102;SHT30;64830;46.910;6.354;2023-09-19T05:56:23;15.21;84.26
76102;SHT30;64830;46.910;6.354;2023-09-19T05:58:49;15.25;84.29
76102;SHT30;64830;46.910;6.354;2023-09-19T06:01:15;15.24;84.13
76102;SHT30;64830;46.910;6.354;2023-09-19T06:03:40;15.28;84.04
76102;SHT30;64830;46.910;6.354;2023-09-19T06:06:05;15.25;83.86
76102;SHT30;64830;46.910;6.354;2023-09-19T06:08:32;15.22;83.90
76102;SHT30;64830;46.910;6.354;2023-09-19T06:10:58;15.27;84.30
76102;SHT30;64830;46.910;6.354;2023-09-19T06:13:24;15.29;83.93
76102;SHT30;64830;46.910;6.354;2023-09-19T06:15:52;15.28;83.85
76102;SHT30;64830;46.910;6.354;2023-09-19T06:18:17;15.28;83.84
76102;SHT30;64830;46.910;6.354;2023-09-19T06:20:48;15.29;83.79
76102;SHT30;64830;46.910;6.354;2023-09-19T06:23:14;15.32;83.99
76102;SHT30;64830;46.910;6.354;2023-09-19T06:25:40;15.36;84.08
76102;SHT30;64830;46.910;6.354;2023-09-19T06:28:06;15.34;83.81
76102;SHT30;64830;46.910;6.354;2023-09-19T06:30:33;15.34;83.55
76102;SHT30;64830;46.910;6.354;2023-09-19T06:33:00;15.31;83.99
76102;SHT30;64830;46.910;6.354;2023-09-19T06:35:26;15.31;83.75
76102;SHT30;64830;46.910;6.354;2023-09-19T06:37:52;15.29;83.61
76102;SHT30;64830;46.910;6.354;2023-09-19T06:40:18;15.27;83.60
76102;SHT30;64830;46.910;6.354;2023-09-19T06:42:50;15.28;83.85
76102;SHT30;64830;46.910;6.354;2023-09-19T06:45:15;15.28;83.65
76102;SHT30;64830;46.910;6.354;2023-09-19T06:47:47;15.28;83.72
76102;SHT30;64830;46.910;6.354;2023-09-19T06:50:21;15.27;83.78
76102;SHT30;64830;46.910;6.354;2023-09-19T06:52:51;15.29;84.05
76102;SHT30;64830;46.910;6.354;2023-09-19T06:55:21;15.35;83.68
76102;SHT30;64830;46.910;6.354;2023-09-19T06:57:49;15.34;83.31
76102;SHT30;64830;46.910;6.354;2023-09-19T07:00:15;15.32;83.70
76102;SHT30;64830;46.910;6.354;2023-09-19T07:02:44;15.36;83.51
76102;SHT30;64830;46.910;6.354;2023-09-19T07:05:10;15.35;83.30
76102;SHT30;64830;46.910;6.354;2023-09-19T07:07:36;15.36;83.51
76102;SHT30;64830;46.910;6.354;2023-09-19T07:10:03;15.38;83.17
76102;SHT30;64830;46.910;6.354;2023-09-19T07:12:31;15.35;83.01
76102;SHT30;64830;46.910;6.354;2023-09-19T07:14:56;15.36;82.94
76102;SHT30;64830;46.910;6.354;2023-09-19T07:17:22;15.36;82.59
76102;SHT30;64830;46.910;6.354;2023-09-19T07:19:49;15.28;82.91
76102;SHT30;64830;46.910;6.354;2023-09-19T07:22:15;15.31;83.12
76102;SHT30;64830;46.910;6.354;2023-09-19T07:24:41;15.28;83.38
76102;SHT30;64830;46.910;6.354;2023-09-19T07:27:06;15.31;82.85
76102;SHT30;64830;46.910;6.354;2023-09-19T07:29:31;15.32;82.69
76102;SHT30;64830;46.910;6.354;2023-09-19T07:31:57;15.29;83.04
76102;SHT30;64830;46.910;6.354;2023-09-19T07:34:22;15.36;82.90
76102;SHT30;64830;46.910;6.354;2023-09-19T07:36:49;15.39;82.95
76102;SHT30;64830;46.910;6.354;2023-09-19T07:39:15;15.45;82.91
76102;SHT30;64830;46.910;6.354;2023-09-19T07:41:40;15.50;82.99
76102;SHT30;64830;46.910;6.354;2023-09-19T07:44:06;15.55;82.89
76102;SHT30;64830;46.910;6.354;2023-09-19T07:46:31;15.63;82.69
76102;SHT30;64830;46.910;6.354;2023-09-19T07:48:57;15.69;82.04
76102;SHT30;64830;46.910;6.354;2023-09-19T07:51:23;15.69;82.18
76102;SHT30;64830;46.910;6.354;2023-09-19T07:53:48;15.73;82.11
76102;SHT30;64830;46.910;6.354;2023-09-19T07:56:14;15.73;81.87
76102;SHT30;64830;46.910;6.354;2023-09-19T07:58:40;15.74;81.82
76102;SHT30;64830;46.910;6.354;2023-09-19T08:01:10;15.74;81.91
76102;SHT30;64830;46.910;6.354;2023-09-19T08:03:36;15.80;82.10
76102;SHT30;64830;46.910;6.354;2023-09-19T08:06:06;15.89;82.07
76102;SHT30;64830;46.910;6.354;2023-09-19T08:08:32;15.98;81.79
76102;SHT30;64830;46.910;6.354;2023-09-19T08:10:57;16.14;81.58
76102;SHT30;64830;46.910;6.354;2023-09-19T08:13:26;16.35;79.89
76102;SHT30;64830;46.910;6.354;2023-09-19T08:15:52;16.55;79.80
76102;SHT30;64830;46.910;6.354;2023-09-19T08:18:20;16.64;77.74
76102;SHT30;64830;46.910;6.354;2023-09-19T08:20:51;16.83;77.34
76102;SHT30;64830;46.910;6.354;2023-09-19T08:23:17;16.94;77.31
76102;SHT30;64830;46.910;6.354;2023-09-19T08:25:47;17.07;76.75
76102;SHT30;64830;46.910;6.354;2023-09-19T08:28:13;17.21;77.34
76102;SHT30;64830;46.910;6.354;2023-09-19T08:30:44;17.31;76.83
76102;SHT30;64830;46.910;6.354;2023-09-19T08:33:09;17.42;75.74
76102;SHT30;64830;46.910;6.354;2023-09-19T08:35:35;17.45;74.83
76102;SHT30;64830;46.910;6.354;2023-09-19T08:38:01;17.50;75.13
76102;SHT30;64830;46.910;6.354;2023-09-19T08:40:30;17.66;74.77
76102;SHT30;64830;46.910;6.354;2023-09-19T08:42:58;17.83;74.69
76102;SHT30;64830;46.910;6.354;2023-09-19T08:45:24;17.94;75.31
76102;SHT30;64830;46.910;6.354;2023-09-19T08:50:49;18.24;74.29
76102;SHT30;64830;46.910;6.354;2023-09-19T08:53:21;18.39;73.02
76102;SHT30;64830;46.910;6.354;2023-09-19T08:55:51;18.56;71.22
76102;SHT30;64830;46.910;6.354;2023-09-19T08:58:18;18.52;70.26
76102;SHT30;64830;46.910;6.354;2023-09-19T09:00:48;18.31;70.50
76102;SHT30;64830;46.910;6.354;2023-09-19T09:03:18;18.14;69.92
76102;SHT30;64830;46.910;6.354;2023-09-19T09:05:47;17.93;69.86
76102;SHT30;64830;46.910;6.354;2023-09-19T09:08:13;17.84;69.91
76102;SHT30;64830;46.910;6.354;2023-09-19T09:10:39;17.87;72.23
76102;SHT30;64830;46.910;6.354;2023-09-19T09:13:06;17.84;71.18
76102;SHT30;64830;46.910;6.354;2023-09-19T09:15:35;17.91;72.04
76102;SHT30;64830;46.910;6.354;2023-09-19T09:18:02;17.93;70.75
76102;SHT30;64830;46.910;6.354;2023-09-19T09:20:30;17.98;71.49
76102;SHT30;64830;46.910;6.354;2023-09-19T09:22:56;17.96;71.87
76102;SHT30;64830;46.910;6.354;2023-09-19T09:25:49;17.84;72.20
76102;SHT30;64830;46.910;6.354;2023-09-19T09:28:28;17.73;71.87
76102;SHT30;64830;46.910;6.354;2023-09-19T09:30:54;17.60;71.42
76102;SHT30;64830;46.910;6.354;2023-09-19T09:33:20;17.39;72.04
76102;SHT30;64830;46.910;6.354;2023-09-19T09:35:58;17.31;72.38
76102;SHT30;64830;46.910;6.354;2023-09-19T09:38:45;17.22;72.92
76102;SHT30;64830;46.910;6.354;2023-09-19T09:41:11;17.18;73.05
76102;SHT30;64830;46.910;6.354;2023-09-19T09:43:41;17.08;73.12
76102;SHT30;64830;46.910;6.354;2023-09-19T09:46:21;17.08;73.74
76102;SHT30;64830;46.910;6.354;2023-09-19T09:49:00;17.10;73.66
76102;SHT30;64830;46.910;6.354;2023-09-19T09:52:06;17.14;73.35
76102;SHT30;64830;46.910;6.354;2023-09-19T09:54:33;17.10;73.70
76102;SHT30;64830;46.910;6.354;2023-09-19T09:57:06;17.14;73.70
76102;SHT30;64830;46.910;6.354;2023-09-19T10:02:16;17.52;72.64
76102;SHT30;64830;46.910;6.354;2023-09-19T10:04:49;17.79;72.91
76102;SHT30;64830;46.910;6.354;2023-09-19T10:07:31;18.02;71.38
76102;SHT30;64830;46.910;6.354;2023-09-19T10:10:38;18.26;69.79
76102;SHT30;64830;46.910;6.354;2023-09-19T10:13:05;18.48;69.40
76102;SHT30;64830;46.910;6.354;2023-09-19T10:15:34;18.74;66.98
76102;SHT30;64830;46.910;6.354;2023-09-19T10:18:04;18.91;68.08
76102;SHT30;64830;46.910;6.354;2023-09-19T10:20:30;19.07;66.91
76102;SHT30;64830;46.910;6.354;2023-09-19T10:22:56;19.26;67.14
76102;SHT30;64830;46.910;6.354;2023-09-19T10:25:27;19.32;66.92
76102;SHT30;64830;46.910;6.354;2023-09-19T10:27:57;19.29;65.69
76102;SHT30;64830;46.910;6.354;2023-09-19T10:30:24;19.31;66.74
76102;SHT30;64830;46.910;6.354;2023-09-19T10:32:58;19.52;67.68
76102;SHT30;64830;46.910;6.354;2023-09-19T10:35:25;19.71;64.07
76102;SHT30;64830;46.910;6.354;2023-09-19T10:37:51;19.76;64.79
76102;SHT30;64830;46.910;6.354;2023-09-19T10:40:21;19.90;64.38
76102;SHT30;64830;46.910;6.354;2023-09-19T10:42:52;19.97;64.18
76102;SHT30;64830;46.910;6.354;2023-09-19T10:45:19;19.94;64.86
76102;SHT30;64830;46.910;6.354;2023-09-19T10:47:45;19.97;65.23
76102;SHT30;64830;46.910;6.354;2023-09-19T10:50:20;19.87;64.17
76102;SHT30;64830;46.910;6.354;2023-09-19T10:52:47;19.94;64.55
76102;SHT30;64830;46.910;6.354;2023-09-19T10:55:17;20.05;63.85
76102;SHT30;64830;46.910;6.354;2023-09-19T10:57:44;20.17;64.28
76102;SHT30;64830;46.910;6.354;2023-09-19T11:00:12;20.35;64.08
76102;SHT30;64830;46.910;6.354;2023-09-19T11:05:40;20.64;60.92
76102;SHT30;64830;46.910;6.354;2023-09-19T11:08:10;20.70;60.51
76102;SHT30;64830;46.910;6.354;2023-09-19T11:10:50;20.72;57.05
76102;SHT30;64830;46.910;6.354;2023-09-19T11:13:29;20.76;56.47
76102;SHT30;64830;46.910;6.354;2023-09-19T11:16:04;20.70;58.30
76102;SHT30;64830;46.910;6.354;2023-09-19T11:24:28;20.29;58.22
76102;SHT30;64830;46.910;6.354;2023-09-19T11:27:13;20.08;60.04
76102;SHT30;64830;46.910;6.354;2023-09-19T11:29:39;20.00;60.14
76102;SHT30;64830;46.910;6.354;2023-09-19T11:32:06;20.00;60.04
76102;SHT30;64830;46.910;6.354;2023-09-19T11:34:42;20.22;58.81
76102;SHT30;64830;46.910;6.354;2023-09-19T11:39:37;20.49;59.44
76102;SHT30;64830;46.910;6.354;2023-09-19T11:48:23;20.95;58.48
76102;SHT30;64830;46.910;6.354;2023-09-19T11:50:51;21.14;57.94
76102;SHT30;64830;46.910;6.354;2023-09-19T11:53:17;21.14;56.34
76102;SHT30;64830;46.910;6.354;2023-09-19T11:55:45;21.07;53.08
76102;SHT30;64830;46.910;6.354;2023-09-19T11:58:12;20.92;55.40
76102;SHT30;64830;46.910;6.354;2023-09-19T12:00:40;20.66;53.76
76102;SHT30;64830;46.910;6.354;2023-09-19T12:03:10;20.47;56.00
76102;SHT30;64830;46.910;6.354;2023-09-19T12:05:37;20.38;56.15
76102;SHT30;64830;46.910;6.354;2023-09-19T12:08:07;20.32;55.67
76102;SHT30;64830;46.910;6.354;2023-09-19T12:10:45;20.24;56.32
76102;SHT30;64830;46.910;6.354;2023-09-19T12:13:16;20.21;56.21
76102;SHT30;64830;46.910;6.354;2023-09-19T12:15:41;20.14;56.64
76102;SHT30;64830;46.910;6.354;2023-09-19T12:18:25;20.02;57.77
76102;SHT30;64830;46.910;6.354;2023-09-19T12:20:50;19.90;58.43
76102;SHT30;64830;46.910;6.354;2023-09-19T12:23:17;19.85;58.50
76102;SHT30;64830;46.910;6.354;2023-09-19T12:25:43;19.81;58.67
76102;SHT30;64830;46.910;6.354;2023-09-19T12:28:12;19.78;59.75
76102;SHT30;64830;46.910;6.354;2023-09-19T12:30:37;19.88;59.89
76102;SHT30;64830;46.910;6.354;2023-09-19T12:33:15;20.01;59.71
76102;SHT30;64830;46.910;6.354;2023-09-19T12:35:41;20.10;60.03
76102;SHT30;64830;46.910;6.354;2023-09-19T12:38:08;20.22;57.63
76102;SHT30;64830;46.910;6.354;2023-09-19T12:40:35;20.28;57.67
76102;SHT30;64830;46.910;6.354;2023-09-19T12:43:03;20.32;53.45
76102;SHT30;64830;46.910;6.354;2023-09-19T12:45:33;20.33;57.70
76102;SHT30;64830;46.910;6.354;2023-09-19T12:48:21;20.47;57.01
76102;SHT30;64830;46.910;6.354;2023-09-19T12:51:07;20.42;56.56
76102;SHT30;64830;46.910;6.354;2023-09-19T12:53:40;20.38;57.02
76102;SHT30;64830;46.910;6.354;2023-09-19T12:56:10;20.42;57.63
76102;SHT30;64830;46.910;6.354;2023-09-19T12:58:54;20.52;56.90
76102;SHT30;64830;46.910;6.354;2023-09-19T13:01:20;20.59;57.60
76102;SHT30;64830;46.910;6.354;2023-09-19T13:04:20;20.74;56.88
76102;SHT30;64830;46.910;6.354;2023-09-19T13:06:53;20.76;56.49
76102;SHT30;64830;46.910;6.354;2023-09-19T13:09:21;20.76;57.24
76102;SHT30;64830;46.910;6.354;2023-09-19T13:11:47;20.84;58.68
76102;SHT30;64830;46.910;6.354;2023-09-19T13:14:24;20.97;58.62
76102;SHT30;64830;46.910;6.354;2023-09-19T13:17:00;21.02;57.84
76102;SHT30;64830;46.910;6.354;2023-09-19T13:19:44;21.09;57.52
76102;SHT30;64830;46.910;6.354;2023-09-19T13:22:36;21.08;55.86
76102;SHT30;64830;46.910;6.354;2023-09-19T13:25:01;21.05;55.93
76102;SHT30;64830;46.910;6.354;2023-09-19T13:27:29;21.09;57.24
76102;SHT30;64830;46.910;6.354;2023-09-19T13:29:54;21.04;54.81
76102;SHT30;64830;46.910;6.354;2023-09-19T13:32:20;20.98;55.84
76102;SHT30;64830;46.910;6.354;2023-09-19T13:34:45;21.01;55.51
76102;SHT30;64830;46.910;6.354;2023-09-19T13:37:11;21.05;55.83
76102;SHT30;64830;46.910;6.354;2023-09-19T13:39:38;20.98;54.50
76102;SHT30;64830;46.910;6.354;2023-09-19T13:42:08;21.02;54.35
76102;SHT30;64830;46.910;6.354;2023-09-19T13:44:37;21.08;53.08
76102;SHT30;64830;46.910;6.354;2023-09-19T13:47:03;21.02;54.83
76102;SHT30;64830;46.910;6.354;2023-09-19T13:49:34;21.09;52.68
76102;SHT30;64830;46.910;6.354;2023-09-19T13:52:00;21.08;52.14
76102;SHT30;64830;46.910;6.354;2023-09-19T13:54:28;21.11;53.84
76102;SHT30;64830;46.910;6.354;2023-09-19T13:56:53;21.05;52.26
76102;SHT30;64830;46.910;6.354;2023-09-19T13:59:19;21.00;53.18
76102;SHT30;64830;46.910;6.354;2023-09-19T14:01:46;21.04;53.47
76102;SHT30;64830;46.910;6.354;2023-09-19T14:04:11;21.08;54.42
76102;SHT30;64830;46.910;6.354;2023-09-19T14:06:37;21.12;54.12
76102;SHT30;64830;46.910;6.354;2023-09-19T14:09:03;21.15;54.13
76102;SHT30;64830;46.910;6.354;2023-09-19T14:11:29;21.22;54.61
76102;SHT30;64830;46.910;6.354;2023-09-19T14:13:54;21.28;53.90
76102;SHT30;64830;46.910;6.354;2023-09-19T14:16:19;21.26;54.69
76102;SHT30;64830;46.910;6.354;2023-09-19T14:18:47;21.26;53.85
76102;SHT30;64830;46.910;6.354;2023-09-19T14:21:13;21.25;53.30
76102;SHT30;64830;46.910;6.354;2023-09-19T14:23:40;21.25;54.71
76102;SHT30;64830;46.910;6.354;2023-09-19T14:26:06;21.32;55.45
76102;SHT30;64830;46.910;6.354;2023-09-19T14:28:32;21.36;53.99
76102;SHT30;64830;46.910;6.354;2023-09-19T14:31:19;21.36;54.95
76102;SHT30;64830;46.910;6.354;2023-09-19T14:33:44;21.26;54.76
76102;SHT30;64830;46.910;6.354;2023-09-19T14:36:10;21.21;55.03
76102;SHT30;64830;46.910;6.354;2023-09-19T14:38:37;21.21;55.71
76102;SHT30;64830;46.910;6.354;2023-09-19T14:41:04;21.21;56.85
76102;SHT30;64830;46.910;6.354;2023-09-19T14:43:30;21.18;56.70
76102;SHT30;64830;46.910;6.354;2023-09-19T14:45:57;21.14;57.11
76102;SHT30;64830;46.910;6.354;2023-09-19T14:48:23;21.14;57.11
76102;SHT30;64830;46.910;6.354;2023-09-19T14:50:51;21.15;57.02
76102;SHT30;64830;46.910;6.354;2023-09-19T14:53:17;21.17;56.93
76102;SHT30;64830;46.910;6.354;2023-09-19T14:55:44;21.15;56.75
76102;SHT30;64830;46.910;6.354;2023-09-19T14:58:10;21.15;56.23
76102;SHT30;64830;46.910;6.354;2023-09-19T15:00:37;21.19;57.14
76102;SHT30;64830;46.910;6.354;2023-09-19T15:03:03;21.21;56.59
76102;SHT30;64830;46.910;6.354;2023-09-19T15:05:29;21.24;55.71
76102;SHT30;64830;46.910;6.354;2023-09-19T15:07:57;21.18;57.26
76102;SHT30;64830;46.910;6.354;2023-09-19T15:10:23;21.19;55.82
76102;SHT30;64830;46.910;6.354;2023-09-19T15:12:49;21.04;56.58
76102;SHT30;64830;46.910;6.354;2023-09-19T15:15:14;21.01;57.18
76102;SHT30;64830;46.910;6.354;2023-09-19T15:17:40;20.97;57.04
76102;SHT30;64830;46.910;6.354;2023-09-19T15:20:06;20.98;57.74
76102;SHT30;64830;46.910;6.354;2023-09-19T15:22:36;21.01;56.65
76102;SHT30;64830;46.910;6.354;2023-09-19T15:25:02;21.01;56.72
76102;SHT30;64830;46.910;6.354;2023-09-19T15:27:29;20.90;56.70
76102;SHT30;64830;46.910;6.354;2023-09-19T15:29:56;20.84;57.05
76102;SHT30;64830;46.910;6.354;2023-09-19T15:32:24;20.87;57.46
76102;SHT30;64830;46.910;6.354;2023-09-19T15:34:49;20.95;57.78
76102;SHT30;64830;46.910;6.354;2023-09-19T15:37:14;21.01;57.78
76102;SHT30;64830;46.910;6.354;2023-09-19T15:39:40;21.04;54.03
76102;SHT30;64830;46.910;6.354;2023-09-19T15:42:06;20.97;54.15
76102;SHT30;64830;46.910;6.354;2023-09-19T15:44:31;21.00;54.91
76102;SHT30;64830;46.910;6.354;2023-09-19T15:46:58;21.04;54.80
76102;SHT30;64830;46.910;6.354;2023-09-19T15:49:23;21.00;54.51
76102;SHT30;64830;46.910;6.354;2023-09-19T15:51:48;21.02;55.88
76102;SHT30;64830;46.910;6.354;2023-09-19T15:54:15;21.15;56.08
76102;SHT30;64830;46.910;6.354;2023-09-19T15:56:44;21.47;55.38
76102;SHT30;64830;46.910;6.354;2023-09-19T15:59:10;24.12;52.20
76102;SHT30;64830;46.910;6.354;2023-09-19T16:01:37;27.12;42.30
76102;SHT30;64830;46.910;6.354;2023-09-19T16:04:03;29.07;41.36
76102;SHT30;64830;46.910;6.354;2023-09-19T16:06:30;30.48;40.08
76102;SHT30;64830;46.910;6.354;2023-09-19T16:08:58;31.83;39.56
76102;SHT30;64830;46.910;6.354;2023-09-19T16:11:24;32.52;34.76
76102;SHT30;64830;46.910;6.354;2023-09-19T16:13:51;33.03;35.75
76102;SHT30;64830;46.910;6.354;2023-09-19T16:16:18;33.33;32.67
76102;SHT30;64830;46.910;6.354;2023-09-19T16:18:47;33.52;32.08
76102;SHT30;64830;46.910;6.354;2023-09-19T16:21:16;33.35;33.76